createdAt,value
2019-05-23T00:02:40.953Z,14
2019-05-23T00:07:45.704Z,14
2019-05-23T00:12:50.756Z,14
2019-05-23T00:17:55.865Z,14
2019-05-23T00:23:00.896Z,13.9
2019-05-23T00:28:05.806Z,13.9
2019-05-23T00:33:10.678Z,13.9
2019-05-23T00:38:15.522Z,13.9
2019-05-23T00:43:19.304Z,13.9
2019-05-23T00:48:24.598Z,13.7
2019-05-23T00:53:29.845Z,13.7
2019-05-23T00:58:34.924Z,13.7
2019-05-23T01:03:40.620Z,13.6
2019-05-23T01:08:45.468Z,13.6
2019-05-23T01:13:50.571Z,13.6
2019-05-23T01:18:54.033Z,13.5
2019-05-23T01:23:59.013Z,13.5
2019-05-23T01:29:03.827Z,13.4
2019-05-23T01:34:09.272Z,13.2
2019-05-23T01:39:14.609Z,13.1
2019-05-23T01:44:19.958Z,13.1
2019-05-23T01:49:25.833Z,13
2019-05-23T01:54:30.972Z,13
2019-05-23T01:59:35.886Z,13
2019-05-23T02:04:39.697Z,13
2019-05-23T02:09:44.753Z,13
2019-05-23T02:14:49.644Z,12.9
2019-05-23T02:19:53.337Z,12.9
2019-05-23T02:24:58.558Z,12.9
2019-05-23T02:30:03.897Z,12.9
2019-05-23T02:35:08.863Z,12.9
2019-05-23T02:40:13.847Z,12.9
2019-05-23T02:45:18.783Z,12.9
2019-05-23T02:50:24.160Z,13.1
2019-05-23T02:55:29.190Z,13
2019-05-23T03:00:50.730Z,13.1
2019-05-23T03:05:39.918Z,13.2
2019-05-23T03:10:44.819Z,13.3
2019-05-23T03:15:50.059Z,13.3
2019-05-23T03:20:54.829Z,13.3
2019-05-23T03:26:00.102Z,13.3
2019-05-23T03:31:33.388Z,13.3
2019-05-23T03:36:08.946Z,13.4
2019-05-23T03:41:13.823Z,13.4
2019-05-23T03:46:18.792Z,13.5
2019-05-23T03:51:24.205Z,13.5
2019-05-23T03:56:29.340Z,13.5
2019-05-23T04:01:50.304Z,13.6
2019-05-23T04:06:35.297Z,13.6
2019-05-23T04:11:40.241Z,13.6
2019-05-23T04:16:45.080Z,13.7
2019-05-23T04:21:49.778Z,13.7
2019-05-23T04:26:54.716Z,13.6
2019-05-23T04:32:10.316Z,13.7
2019-05-23T04:37:05.539Z,13.7
2019-05-23T04:42:10.340Z,13.6
2019-05-23T04:47:15.467Z,13.6
2019-05-23T04:52:20.919Z,13.6
2019-05-23T04:57:25.921Z,13.6
2019-05-23T05:02:30.868Z,13.6
2019-05-23T05:07:35.730Z,13.7
2019-05-23T05:12:39.191Z,13.7
2019-05-23T05:17:44.154Z,13.7
2019-05-23T05:22:47.443Z,13.6
2019-05-23T05:27:52.673Z,13.7
2019-05-23T05:32:57.624Z,13.6
2019-05-23T05:38:01.086Z,13.6
2019-05-23T05:43:06.493Z,13.4
2019-05-23T05:48:11.685Z,13.4
2019-05-23T05:53:16.612Z,13.4
2019-05-23T05:58:21.616Z,13.4
2019-05-23T06:03:26.417Z,13.5
2019-05-23T06:08:31.723Z,13.5
2019-05-23T06:13:36.572Z,13.7
2019-05-23T06:18:41.428Z,13.8
2019-05-23T06:23:46.206Z,14
2019-05-23T06:28:51.328Z,14.3
2019-05-23T06:33:56.222Z,14.6
2019-05-23T06:39:01.149Z,14.9
2019-05-23T06:44:06.039Z,15.2
2019-05-23T06:49:10.949Z,15.2
2019-05-23T06:54:15.844Z,15.4
2019-05-23T06:59:20.816Z,15.6
2019-05-23T07:04:25.765Z,16
2019-05-23T07:09:30.750Z,16.2
2019-05-23T07:14:35.554Z,16.4
2019-05-23T07:19:40.544Z,17.2
2019-05-23T07:25:00.068Z,17.9
2019-05-23T07:29:55.143Z,18
2019-05-23T07:34:59.968Z,18.6
2019-05-23T07:40:07.919Z,18.1
2019-05-23T07:45:15.831Z,18.7
2019-05-23T07:50:20.779Z,18.7
2019-05-23T07:55:25.734Z,19.5
2019-05-23T08:00:30.921Z,19.1
2019-05-23T08:05:35.718Z,19.8
2019-05-23T08:10:39.186Z,20
2019-05-23T08:15:43.959Z,19.9
2019-05-23T08:20:48.926Z,19.2
2019-05-23T08:25:53.755Z,18.8
2019-05-23T08:30:58.888Z,18.5
2019-05-23T08:36:05.277Z,19.1
2019-05-23T08:41:10.731Z,19.1
2019-05-23T08:46:15.723Z,19.4
2019-05-23T08:51:20.847Z,18.7
2019-05-23T08:56:25.743Z,18.8
2019-05-23T09:01:30.697Z,19.3
2019-05-23T09:06:35.550Z,19.4
2019-05-23T09:11:40.911Z,19.1
2019-05-23T09:16:45.824Z,19.1
2019-05-23T09:21:58.509Z,19
2019-05-23T09:26:53.358Z,19
2019-05-23T09:31:58.923Z,19
2019-05-23T09:37:02.736Z,19
2019-05-23T09:42:11.295Z,18.9
2019-05-23T09:47:16.912Z,18.4
2019-05-23T09:52:21.773Z,18.3
2019-05-23T09:57:26.629Z,18.6
2019-05-23T10:02:31.608Z,18.8
2019-05-23T10:07:36.650Z,18.9
2019-05-23T10:12:41.615Z,19.3
2019-05-23T10:17:45.104Z,19.5
2019-05-23T10:27:57.779Z,19.6
2019-05-23T10:33:02.835Z,18.8
2019-05-23T10:38:05.728Z,18.5
2019-05-23T10:43:10.808Z,18.4
2019-05-23T10:48:15.703Z,19.4
2019-05-23T10:53:21.304Z,19.9
2019-05-23T10:58:26.336Z,19.8
2019-05-23T11:03:31.139Z,19.7
2019-05-23T11:08:35.938Z,19.7
2019-05-23T11:13:41.121Z,19.1
2019-05-23T11:18:45.913Z,19
2019-05-23T11:24:08.242Z,19.4
2019-05-23T11:28:53.055Z,19.4
2019-05-23T11:33:58.279Z,19.6
2019-05-23T11:39:03.178Z,20.1
2019-05-23T11:44:06.560Z,19.8
2019-05-23T11:49:11.899Z,19.3
2019-05-23T11:54:17.102Z,19.2
2019-05-23T11:59:21.874Z,19.7
2019-05-23T12:04:26.657Z,20.2
2019-05-23T12:09:31.347Z,20
2019-05-23T12:14:38.034Z,20
2019-05-23T12:19:43.415Z,19.7
2019-05-23T12:24:48.666Z,19.6
2019-05-23T12:29:53.500Z,19.1
2019-05-23T12:35:13.382Z,18.9
2019-05-23T12:40:08.336Z,18.9
2019-05-23T12:45:13.752Z,19.4
2019-05-23T12:50:18.500Z,19.4
2019-05-23T12:55:23.450Z,18.4
2019-05-23T13:00:28.967Z,18.2
2019-05-23T13:05:34.009Z,18.2
2019-05-23T13:10:38.819Z,18.3
2019-05-23T13:15:44.309Z,18.6
2019-05-23T13:26:31.184Z,18.6
2019-05-23T13:31:34.958Z,18.4
2019-05-23T13:36:40.158Z,18.4
2019-05-23T13:41:43.653Z,18.6
2019-05-23T13:46:48.546Z,19
2019-05-23T13:51:53.408Z,19.2
2019-05-23T13:56:56.992Z,19.3
2019-05-23T14:02:02.290Z,18.8
2019-05-23T14:07:07.252Z,19.4
2019-05-23T14:12:26.360Z,18.8
2019-05-23T14:22:16.264Z,18.1
2019-05-23T14:27:21.788Z,18.1
2019-05-23T14:32:26.695Z,18.3
2019-05-23T14:37:32.052Z,18.2
2019-05-23T14:42:37.416Z,18.3
2019-05-23T14:47:42.928Z,18.2
2019-05-23T14:52:47.884Z,18
2019-05-23T14:57:52.883Z,18
2019-05-23T15:02:58.766Z,17.7
2019-05-23T15:08:04.511Z,17.6
2019-05-23T15:13:09.378Z,17.6
2019-05-23T15:18:14.422Z,18
2019-05-23T15:23:18.002Z,18.4
2019-05-23T15:28:23.006Z,18.4
2019-05-23T15:33:28.125Z,18.3
2019-05-23T15:38:33.316Z,17.8
2019-05-23T15:43:38.178Z,17.4
2019-05-23T15:48:43.072Z,17.2
2019-05-23T15:53:47.908Z,17.2
2019-05-23T15:58:52.008Z,17.4
2019-05-23T16:03:57.216Z,17.5
2019-05-23T16:09:02.123Z,17.4
2019-05-23T16:14:07.173Z,17.1
2019-05-23T16:19:12.402Z,17
2019-05-23T16:24:17.277Z,17
2019-05-23T16:29:22.175Z,16.7
2019-05-23T16:34:27.212Z,16.6
2019-05-23T16:39:50.922Z,16.5
2019-05-23T16:44:36.198Z,16.5
2019-05-23T16:49:45.947Z,16.4
2019-05-23T16:54:50.157Z,16.3
2019-05-23T17:05:15.655Z,16.1
2019-05-23T17:10:11.074Z,15.9
2019-05-23T17:15:06.144Z,15.9
2019-05-23T17:20:21.767Z,15.7
2019-05-23T17:25:16.686Z,15.7
2019-05-23T17:30:21.743Z,15.5
2019-05-23T17:35:25.092Z,15.3
2019-05-23T17:40:30.484Z,15.1
2019-05-23T17:45:35.306Z,15
2019-05-23T17:50:38.760Z,14.9
2019-05-23T17:55:43.684Z,14.8
2019-05-23T18:00:47.310Z,14.7
2019-05-23T18:05:52.120Z,14.6
2019-05-23T18:10:57.424Z,14.8
2019-05-23T18:16:02.328Z,14.9
2019-05-23T18:21:07.576Z,14.3
2019-05-23T18:26:14.766Z,14.3
2019-05-23T18:31:19.778Z,14.2
2019-05-23T18:36:24.825Z,14
2019-05-23T18:41:30.865Z,13.8
2019-05-23T18:46:38.739Z,13.7
2019-05-23T18:51:43.721Z,13.7
2019-05-23T18:56:50.886Z,13.7
2019-05-23T19:01:56.035Z,13.6
2019-05-23T19:07:01.032Z,13.5
2019-05-23T19:12:06.083Z,13.5
2019-05-23T19:17:11.016Z,13.3
2019-05-23T19:22:16.049Z,13.3
2019-05-23T19:27:19.340Z,13.2
2019-05-23T19:32:24.505Z,13
2019-05-23T19:37:29.442Z,12.9
2019-05-23T19:42:33.466Z,12.9
2019-05-23T19:47:41.129Z,12.6
2019-05-23T19:52:46.440Z,12.6
2019-05-23T19:57:51.416Z,12.6
2019-05-23T20:02:56.328Z,12.5
2019-05-23T20:08:01.720Z,12.3
2019-05-23T20:13:06.883Z,12.3
2019-05-23T20:18:11.794Z,12.2
2019-05-23T20:23:17.815Z,12.1
2019-05-23T20:28:22.820Z,12.1
2019-05-23T20:33:27.872Z,12
2019-05-23T20:38:32.920Z,12
2019-05-23T20:43:38.062Z,12
2019-05-23T20:48:43.339Z,12
2019-05-23T20:53:46.843Z,11.9
2019-05-23T20:58:50.385Z,11.9
2019-05-23T21:03:55.862Z,11.8
2019-05-23T21:09:00.933Z,11.8
2019-05-23T21:14:07.524Z,11.8
2019-05-23T21:19:12.439Z,11.7
2019-05-23T21:24:17.507Z,11.7
2019-05-23T21:29:22.309Z,11.7
2019-05-23T21:34:27.247Z,11.7
2019-05-23T21:39:32.143Z,11.6
2019-05-23T21:44:37.747Z,11.5
2019-05-23T21:49:41.264Z,11.5
2019-05-23T21:54:46.310Z,11.5
2019-05-23T21:59:51.198Z,11.5
2019-05-23T22:04:56.101Z,11.6
2019-05-23T22:10:01.005Z,11.7
2019-05-23T22:15:05.253Z,11.7
2019-05-23T22:20:10.332Z,11.6
2019-05-23T22:25:15.546Z,11.6
2019-05-23T22:30:18.883Z,11.7
2019-05-23T22:35:24.258Z,11.8
2019-05-23T22:40:29.158Z,11.7
2019-05-23T22:45:33.152Z,11.7
2019-05-23T22:50:38.070Z,11.7
2019-05-23T22:55:43.601Z,11.6
2019-05-23T23:00:48.622Z,11.6
2019-05-23T23:05:52.422Z,11.6
2019-05-23T23:10:57.201Z,11.6
2019-05-23T23:16:02.302Z,11.5
2019-05-23T23:21:07.307Z,11.5
2019-05-23T23:26:12.353Z,11.5
2019-05-23T23:31:17.405Z,11.5
2019-05-23T23:36:22.392Z,11.5
2019-05-23T23:41:26.283Z,11.5
2019-05-23T23:46:31.408Z,11.5
2019-05-23T23:51:36.610Z,11.5
2019-05-23T23:56:41.465Z,11.7
